sensor_id;sensor_type;location;lat;lon;timestamp;pressure;altitude;pressure_sealevel;temperature
75822;BMP180;64454;51.984;9.838;2023-10-31T00:01:52;98114.00;;;13.00
75822;BMP180;64454;51.984;9.838;2023-10-31T00:04:18;98117.00;;;13.00
75822;BMP180;64454;51.984;9.838;2023-10-31T00:06:45;98118.00;;;12.80
75822;BMP180;64454;51.984;9.838;2023-10-31T00:09:11;98111.00;;;12.90
75822;BMP180;64454;51.984;9.838;2023-10-31T00:11:38;98105.00;;;13.00
75822;BMP180;64454;51.984;9.838;2023-10-31T00:14:04;98098.00;;;12.90
75822;BMP180;64454;51.984;9.838;2023-10-31T00:16:31;98103.00;;;13.00
75822;BMP180;64454;51.984;9.838;2023-10-31T00:18:57;98100.00;;;13.20
75822;BMP180;64454;51.984;9.838;2023-10-31T00:21:23;98103.00;;;13.10
75822;BMP180;64454;51.984;9.838;2023-10-31T00:23:50;98096.00;;;13.10
75822;BMP180;64454;51.984;9.838;2023-10-31T00:26:16;98098.00;;;13.10
75822;BMP180;64454;51.984;9.838;2023-10-31T00:28:42;98092.00;;;13.20
75822;BMP180;64454;51.984;9.838;2023-10-31T00:31:08;98096.00;;;13.20
75822;BMP180;64454;51.984;9.838;2023-10-31T00:33:37;98095.00;;;13.10
75822;BMP180;64454;51.984;9.838;2023-10-31T00:36:04;98101.00;;;13.10
75822;BMP180;64454;51.984;9.838;2023-10-31T00:38:30;98093.00;;;12.90
75822;BMP180;64454;51.984;9.838;2023-10-31T00:40:57;98099.00;;;12.90
75822;BMP180;64454;51.984;9.838;2023-10-31T00:43:23;98108.00;;;12.90
75822;BMP180;64454;51.984;9.838;2023-10-31T00:45:49;98105.00;;;12.90
75822;BMP180;64454;51.984;9.838;2023-10-31T00:48:15;98113.00;;;13.00
75822;BMP180;64454;51.984;9.838;2023-10-31T00:50:43;98107.00;;;13.00
75822;BMP180;64454;51.984;9.838;2023-10-31T00:53:09;98107.00;;;12.90
75822;BMP180;64454;51.984;9.838;2023-10-31T00:55:35;98108.00;;;12.80
75822;BMP180;64454;51.984;9.838;2023-10-31T00:58:02;98100.00;;;12.90
75822;BMP180;64454;51.984;9.838;2023-10-31T01:00:28;98103.00;;;12.90
75822;BMP180;64454;51.984;9.838;2023-10-31T01:02:55;98100.00;;;12.70
75822;BMP180;64454;51.984;9.838;2023-10-31T01:05:21;98089.00;;;12.80
75822;BMP180;64454;51.984;9.838;2023-10-31T01:07:47;98092.00;;;12.80
75822;BMP180;64454;51.984;9.838;2023-10-31T01:10:13;98086.00;;;12.90
75822;BMP180;64454;51.984;9.838;2023-10-31T01:12:39;98093.00;;;12.90
75822;BMP180;64454;51.984;9.838;2023-10-31T01:15:07;98088.00;;;13.20
75822;BMP180;64454;51.984;9.838;2023-10-31T01:17:33;98079.00;;;13.20
75822;BMP180;64454;51.984;9.838;2023-10-31T01:19:59;98077.00;;;13.20
75822;BMP180;64454;51.984;9.838;2023-10-31T01:22:26;98083.00;;;13.00
75822;BMP180;64454;51.984;9.838;2023-10-31T01:24:52;98076.00;;;13.10
75822;BMP180;64454;51.984;9.838;2023-10-31T01:27:18;98068.00;;;12.90
75822;BMP180;64454;51.984;9.838;2023-10-31T01:29:44;98076.00;;;13.00
75822;BMP180;64454;51.984;9.838;2023-10-31T01:32:11;98074.00;;;12.80
75822;BMP180;64454;51.984;9.838;2023-10-31T01:34:38;98069.00;;;12.80
75822;BMP180;64454;51.984;9.838;2023-10-31T01:37:04;98064.00;;;12.80
75822;BMP180;64454;51.984;9.838;2023-10-31T01:39:30;98063.00;;;12.80
75822;BMP180;64454;51.984;9.838;2023-10-31T01:41:56;98059.00;;;12.80
75822;BMP180;64454;51.984;9.838;2023-10-31T01:44:22;98057.00;;;12.90
75822;BMP180;64454;51.984;9.838;2023-10-31T01:46:48;98056.00;;;13.00
75822;BMP180;64454;51.984;9.838;2023-10-31T01:49:15;98051.00;;;12.80
75822;BMP180;64454;51.984;9.838;2023-10-31T01:51:42;98052.00;;;13.10
75822;BMP180;64454;51.984;9.838;2023-10-31T01:54:10;98041.00;;;12.90
75822;BMP180;64454;51.984;9.838;2023-10-31T01:56:38;98049.00;;;13.00
75822;BMP180;64454;51.984;9.838;2023-10-31T01:59:05;98051.00;;;13.20
75822;BMP180;64454;51.984;9.838;2023-10-31T02:01:32;98050.00;;;13.30
75822;BMP180;64454;51.984;9.838;2023-10-31T02:04:00;98049.00;;;13.20
75822;BMP180;64454;51.984;9.838;2023-10-31T02:06:28;98034.00;;;13.20
75822;BMP180;64454;51.984;9.838;2023-10-31T02:08:56;98037.00;;;13.00
75822;BMP180;64454;51.984;9.838;2023-10-31T02:11:22;98028.00;;;13.00
75822;BMP180;64454;51.984;9.838;2023-10-31T02:13:48;98024.00;;;13.10
75822;BMP180;64454;51.984;9.838;2023-10-31T02:16:14;98035.00;;;13.00
75822;BMP180;64454;51.984;9.838;2023-10-31T02:18:41;98029.00;;;13.00
75822;BMP180;64454;51.984;9.838;2023-10-31T02:21:08;98022.00;;;13.00
75822;BMP180;64454;51.984;9.838;2023-10-31T02:23:35;98024.00;;;13.10
75822;BMP180;64454;51.984;9.838;2023-10-31T02:26:02;98027.00;;;13.00
75822;BMP180;64454;51.984;9.838;2023-10-31T02:28:30;98023.00;;;13.00
75822;BMP180;64454;51.984;9.838;2023-10-31T02:30:57;98018.00;;;12.90
75822;BMP180;64454;51.984;9.838;2023-10-31T02:33:25;98025.00;;;13.20
75822;BMP180;64454;51.984;9.838;2023-10-31T02:35:52;98013.00;;;13.20
75822;BMP180;64454;51.984;9.838;2023-10-31T02:38:19;98018.00;;;13.10
75822;BMP180;64454;51.984;9.838;2023-10-31T02:40:47;98003.00;;;13.20
75822;BMP180;64454;51.984;9.838;2023-10-31T02:43:14;98009.00;;;13.50
75822;BMP180;64454;51.984;9.838;2023-10-31T02:45:41;98008.00;;;13.40
75822;BMP180;64454;51.984;9.838;2023-10-31T02:48:09;98005.00;;;13.60
75822;BMP180;64454;51.984;9.838;2023-10-31T02:50:35;98004.00;;;13.50
75822;BMP180;64454;51.984;9.838;2023-10-31T02:53:02;98004.00;;;13.60
75822;BMP180;64454;51.984;9.838;2023-10-31T02:55:28;98015.00;;;13.40
75822;BMP180;64454;51.984;9.838;2023-10-31T02:57:54;98010.00;;;13.40
75822;BMP180;64454;51.984;9.838;2023-10-31T03:00:21;98021.00;;;13.40
75822;BMP180;64454;51.984;9.838;2023-10-31T03:02:47;98035.00;;;13.40
75822;BMP180;64454;51.984;9.838;2023-10-31T03:05:13;98046.00;;;13.60
75822;BMP180;64454;51.984;9.838;2023-10-31T03:07:39;98029.00;;;13.60
75822;BMP180;64454;51.984;9.838;2023-10-31T03:10:07;98047.00;;;13.70
75822;BMP180;64454;51.984;9.838;2023-10-31T03:12:33;98054.00;;;13.50
75822;BMP180;64454;51.984;9.838;2023-10-31T03:15:00;98082.00;;;13.50
75822;BMP180;64454;51.984;9.838;2023-10-31T03:17:26;98074.00;;;13.30
75822;BMP180;64454;51.984;9.838;2023-10-31T03:19:53;98061.00;;;13.20
75822;BMP180;64454;51.984;9.838;2023-10-31T03:22:19;98070.00;;;13.20
75822;BMP180;64454;51.984;9.838;2023-10-31T03:24:46;98078.00;;;13.30
75822;BMP180;64454;51.984;9.838;2023-10-31T03:27:12;98105.00;;;13.40
75822;BMP180;64454;51.984;9.838;2023-10-31T03:29:38;98084.00;;;13.20
75822;BMP180;64454;51.984;9.838;2023-10-31T03:32:05;98102.00;;;13.30
75822;BMP180;64454;51.984;9.838;2023-10-31T03:34:32;98084.00;;;13.10
75822;BMP180;64454;51.984;9.838;2023-10-31T03:36:58;98093.00;;;13.00
75822;BMP180;64454;51.984;9.838;2023-10-31T03:39:24;98092.00;;;12.90
75822;BMP180;64454;51.984;9.838;2023-10-31T03:41:50;98095.00;;;12.90
75822;BMP180;64454;51.984;9.838;2023-10-31T03:44:16;98100.00;;;12.90
75822;BMP180;64454;51.984;9.838;2023-10-31T03:46:42;98089.00;;;12.90
75822;BMP180;64454;51.984;9.838;2023-10-31T03:49:09;98097.00;;;13.00
75822;BMP180;64454;51.984;9.838;2023-10-31T03:51:35;98091.00;;;13.00
75822;BMP180;64454;51.984;9.838;2023-10-31T03:54:01;98087.00;;;13.00
75822;BMP180;64454;51.984;9.838;2023-10-31T03:56:28;98092.00;;;12.70
75822;BMP180;64454;51.984;9.838;2023-10-31T03:58:54;98084.00;;;12.90
75822;BMP180;64454;51.984;9.838;2023-10-31T04:01:20;98097.00;;;12.80
75822;BMP180;64454;51.984;9.838;2023-10-31T04:03:46;98117.00;;;12.80
75822;BMP180;64454;51.984;9.838;2023-10-31T04:06:13;98124.00;;;12.80
75822;BMP180;64454;51.984;9.838;2023-10-31T04:08:40;98131.00;;;12.70
75822;BMP180;64454;51.984;9.838;2023-10-31T04:11:06;98137.00;;;12.50
75822;BMP180;64454;51.984;9.838;2023-10-31T04:13:32;98142.00;;;12.70
75822;BMP180;64454;51.984;9.838;2023-10-31T04:15:58;98156.00;;;12.60
75822;BMP180;64454;51.984;9.838;2023-10-31T04:18:24;98146.00;;;12.50
75822;BMP180;64454;51.984;9.838;2023-10-31T04:20:51;98156.00;;;12.50
75822;BMP180;64454;51.984;9.838;2023-10-31T04:23:17;98147.00;;;12.50
75822;BMP180;64454;51.984;9.838;2023-10-31T04:25:44;98149.00;;;12.60
75822;BMP180;64454;51.984;9.838;2023-10-31T04:28:10;98142.00;;;12.50
75822;BMP180;64454;51.984;9.838;2023-10-31T04:30:36;98148.00;;;12.30
75822;BMP180;64454;51.984;9.838;2023-10-31T04:33:02;98146.00;;;12.60
75822;BMP180;64454;51.984;9.838;2023-10-31T04:35:29;98171.00;;;12.60
75822;BMP180;64454;51.984;9.838;2023-10-31T04:37:55;98154.00;;;12.50
75822;BMP180;64454;51.984;9.838;2023-10-31T04:40:22;98156.00;;;12.40
75822;BMP180;64454;51.984;9.838;2023-10-31T04:42:49;98167.00;;;12.30
75822;BMP180;64454;51.984;9.838;2023-10-31T04:45:15;98170.00;;;12.30
75822;BMP180;64454;51.984;9.838;2023-10-31T04:47:41;98165.00;;;12.30
75822;BMP180;64454;51.984;9.838;2023-10-31T04:50:08;98168.00;;;12.20
75822;BMP180;64454;51.984;9.838;2023-10-31T04:52:35;98164.00;;;12.30
75822;BMP180;64454;51.984;9.838;2023-10-31T04:55:01;98175.00;;;12.30
75822;BMP180;64454;51.984;9.838;2023-10-31T04:57:28;98207.00;;;12.20
75822;BMP180;64454;51.984;9.838;2023-10-31T04:59:54;98187.00;;;12.10
75822;BMP180;64454;51.984;9.838;2023-10-31T05:02:21;98184.00;;;12.10
75822;BMP180;64454;51.984;9.838;2023-10-31T05:04:48;98186.00;;;12.00
75822;BMP180;64454;51.984;9.838;2023-10-31T05:07:16;98203.00;;;11.90
75822;BMP180;64454;51.984;9.838;2023-10-31T05:09:42;98217.00;;;12.00
75822;BMP180;64454;51.984;9.838;2023-10-31T05:12:08;98221.00;;;12.00
75822;BMP180;64454;51.984;9.838;2023-10-31T05:14:36;98207.00;;;12.00
75822;BMP180;64454;51.984;9.838;2023-10-31T05:17:02;98212.00;;;12.00
75822;BMP180;64454;51.984;9.838;2023-10-31T05:19:29;98214.00;;;11.90
75822;BMP180;64454;51.984;9.838;2023-10-31T05:21:55;98220.00;;;11.90
75822;BMP180;64454;51.984;9.838;2023-10-31T05:24:21;98220.00;;;11.80
75822;BMP180;64454;51.984;9.838;2023-10-31T05:26:47;98218.00;;;11.90
75822;BMP180;64454;51.984;9.838;2023-10-31T05:29:14;98231.00;;;11.90
75822;BMP180;64454;51.984;9.838;2023-10-31T05:31:40;98237.00;;;11.80
75822;BMP180;64454;51.984;9.838;2023-10-31T05:34:08;98239.00;;;11.70
75822;BMP180;64454;51.984;9.838;2023-10-31T05:36:34;98230.00;;;11.90
75822;BMP180;64454;51.984;9.838;2023-10-31T05:39:01;98237.00;;;11.90
75822;BMP180;64454;51.984;9.838;2023-10-31T05:41:27;98235.00;;;11.80
75822;BMP180;64454;51.984;9.838;2023-10-31T05:43:53;98237.00;;;12.00
75822;BMP180;64454;51.984;9.838;2023-10-31T05:46:19;98242.00;;;11.80
75822;BMP180;64454;51.984;9.838;2023-10-31T05:48:47;98252.00;;;11.90
75822;BMP180;64454;51.984;9.838;2023-10-31T05:51:14;98258.00;;;12.00
75822;BMP180;64454;51.984;9.838;2023-10-31T05:53:43;98280.00;;;12.00
75822;BMP180;64454;51.984;9.838;2023-10-31T05:56:11;98262.00;;;12.00
75822;BMP180;64454;51.984;9.838;2023-10-31T05:58:39;98258.00;;;12.00
75822;BMP180;64454;51.984;9.838;2023-10-31T06:01:06;98269.00;;;12.20
75822;BMP180;64454;51.984;9.838;2023-10-31T06:03:33;98266.00;;;12.00
75822;BMP180;64454;51.984;9.838;2023-10-31T06:06:00;98269.00;;;12.00
75822;BMP180;64454;51.984;9.838;2023-10-31T06:08:26;98283.00;;;11.80
75822;BMP180;64454;51.984;9.838;2023-10-31T06:10:55;98271.00;;;11.90
75822;BMP180;64454;51.984;9.838;2023-10-31T06:13:21;98273.00;;;12.00
75822;BMP180;64454;51.984;9.838;2023-10-31T06:15:47;98273.00;;;12.10
75822;BMP180;64454;51.984;9.838;2023-10-31T06:18:14;98285.00;;;12.10
75822;BMP180;64454;51.984;9.838;2023-10-31T06:20:40;98280.00;;;12.00
75822;BMP180;64454;51.984;9.838;2023-10-31T06:23:07;98286.00;;;12.10
75822;BMP180;64454;51.984;9.838;2023-10-31T06:25:33;98290.00;;;12.20
75822;BMP180;64454;51.984;9.838;2023-10-31T06:27:59;98283.00;;;12.00
75822;BMP180;64454;51.984;9.838;2023-10-31T06:30:26;98275.00;;;12.10
75822;BMP180;64454;51.984;9.838;2023-10-31T06:32:53;98284.00;;;12.20
75822;BMP180;64454;51.984;9.838;2023-10-31T06:35:19;98273.00;;;12.10
75822;BMP180;64454;51.984;9.838;2023-10-31T06:37:45;98285.00;;;12.20
75822;BMP180;64454;51.984;9.838;2023-10-31T06:40:12;98280.00;;;12.10
75822;BMP180;64454;51.984;9.838;2023-10-31T06:42:39;98289.00;;;12.20
75822;BMP180;64454;51.984;9.838;2023-10-31T06:45:06;98280.00;;;12.10
75822;BMP180;64454;51.984;9.838;2023-10-31T06:47:33;98286.00;;;12.30
75822;BMP180;64454;51.984;9.838;2023-10-31T06:49:59;98296.00;;;12.10
75822;BMP180;64454;51.984;9.838;2023-10-31T06:52:25;98296.00;;;12.20
75822;BMP180;64454;51.984;9.838;2023-10-31T06:54:51;98307.00;;;12.10
75822;BMP180;64454;51.984;9.838;2023-10-31T06:57:18;98291.00;;;12.20
75822;BMP180;64454;51.984;9.838;2023-10-31T06:59:44;98308.00;;;12.10
75822;BMP180;64454;51.984;9.838;2023-10-31T07:02:11;98300.00;;;12.10
75822;BMP180;64454;51.984;9.838;2023-10-31T07:04:38;98302.00;;;12.30
75822;BMP180;64454;51.984;9.838;2023-10-31T07:07:04;98304.00;;;12.20
75822;BMP180;64454;51.984;9.838;2023-10-31T07:09:30;98298.00;;;12.30
75822;BMP180;64454;51.984;9.838;2023-10-31T07:11:56;98307.00;;;12.30
75822;BMP180;64454;51.984;9.838;2023-10-31T07:14:23;98303.00;;;12.30
75822;BMP180;64454;51.984;9.838;2023-10-31T07:16:49;98305.00;;;12.40
75822;BMP180;64454;51.984;9.838;2023-10-31T07:19:15;98313.00;;;12.30
75822;BMP180;64454;51.984;9.838;2023-10-31T07:21:42;98315.00;;;12.20
75822;BMP180;64454;51.984;9.838;2023-10-31T07:24:09;98318.00;;;12.30
75822;BMP180;64454;51.984;9.838;2023-10-31T07:26:35;98321.00;;;12.30
75822;BMP180;64454;51.984;9.838;2023-10-31T07:29:01;98327.00;;;12.20
75822;BMP180;64454;51.984;9.838;2023-10-31T07:31:28;98330.00;;;11.90
75822;BMP180;64454;51.984;9.838;2023-10-31T07:33:54;98326.00;;;12.20
75822;BMP180;64454;51.984;9.838;2023-10-31T07:36:21;98319.00;;;12.30
75822;BMP180;64454;51.984;9.838;2023-10-31T07:38:48;98335.00;;;12.20
75822;BMP180;64454;51.984;9.838;2023-10-31T07:41:14;98338.00;;;12.10
75822;BMP180;64454;51.984;9.838;2023-10-31T07:43:40;98343.00;;;12.30
75822;BMP180;64454;51.984;9.838;2023-10-31T07:46:06;98335.00;;;12.20
75822;BMP180;64454;51.984;9.838;2023-10-31T07:48:33;98333.00;;;12.30
75822;BMP180;64454;51.984;9.838;2023-10-31T07:50:59;98342.00;;;12.30
75822;BMP180;64454;51.984;9.838;2023-10-31T07:53:26;98341.00;;;12.30
75822;BMP180;64454;51.984;9.838;2023-10-31T07:55:52;98337.00;;;12.50
75822;BMP180;64454;51.984;9.838;2023-10-31T07:58:18;98347.00;;;12.20
75822;BMP180;64454;51.984;9.838;2023-10-31T08:00:44;98347.00;;;12.40
75822;BMP180;64454;51.984;9.838;2023-10-31T08:03:10;98348.00;;;12.50
75822;BMP180;64454;51.984;9.838;2023-10-31T08:05:37;98343.00;;;12.30
75822;BMP180;64454;51.984;9.838;2023-10-31T08:08:04;98363.00;;;12.50
75822;BMP180;64454;51.984;9.838;2023-10-31T08:10:30;98353.00;;;12.40
75822;BMP180;64454;51.984;9.838;2023-10-31T08:12:56;98358.00;;;12.50
75822;BMP180;64454;51.984;9.838;2023-10-31T08:15:22;98361.00;;;12.40
75822;BMP180;64454;51.984;9.838;2023-10-31T08:17:49;98368.00;;;12.20
75822;BMP180;64454;51.984;9.838;2023-10-31T08:20:15;98371.00;;;12.30
75822;BMP180;64454;51.984;9.838;2023-10-31T08:22:42;98375.00;;;12.40
75822;BMP180;64454;51.984;9.838;2023-10-31T08:25:09;98381.00;;;12.30
75822;BMP180;64454;51.984;9.838;2023-10-31T08:27:35;98375.00;;;12.20
75822;BMP180;64454;51.984;9.838;2023-10-31T08:30:02;98380.00;;;12.30
75822;BMP180;64454;51.984;9.838;2023-10-31T08:32:28;98383.00;;;12.50
75822;BMP180;64454;51.984;9.838;2023-10-31T08:34:54;98392.00;;;12.40
75822;BMP180;64454;51.984;9.838;2023-10-31T08:37:22;98398.00;;;12.50
75822;BMP180;64454;51.984;9.838;2023-10-31T08:39:48;98391.00;;;12.40
75822;BMP180;64454;51.984;9.838;2023-10-31T08:42:15;98397.00;;;12.20
75822;BMP180;64454;51.984;9.838;2023-10-31T08:44:41;98405.00;;;12.10
75822;BMP180;64454;51.984;9.838;2023-10-31T08:47:07;98418.00;;;12.30
75822;BMP180;64454;51.984;9.838;2023-10-31T08:49:33;98416.00;;;12.20
75822;BMP180;64454;51.984;9.838;2023-10-31T08:52:00;98418.00;;;12.20
75822;BMP180;64454;51.984;9.838;2023-10-31T08:54:27;98427.00;;;12.10
75822;BMP180;64454;51.984;9.838;2023-10-31T08:56:54;98440.00;;;12.40
75822;BMP180;64454;51.984;9.838;2023-10-31T08:59:20;98443.00;;;12.30
75822;BMP180;64454;51.984;9.838;2023-10-31T09:01:47;98450.00;;;12.10
75822;BMP180;64454;51.984;9.838;2023-10-31T09:04:13;98455.00;;;12.00
75822;BMP180;64454;51.984;9.838;2023-10-31T09:06:39;98459.00;;;12.10
75822;BMP180;64454;51.984;9.838;2023-10-31T09:09:05;98458.00;;;12.30
75822;BMP180;64454;51.984;9.838;2023-10-31T09:11:31;98470.00;;;12.20
75822;BMP180;64454;51.984;9.838;2023-10-31T09:13:58;98473.00;;;12.50
75822;BMP180;64454;51.984;9.838;2023-10-31T09:16:24;98478.00;;;12.50
75822;BMP180;64454;51.984;9.838;2023-10-31T09:18:50;98481.00;;;12.50
75822;BMP180;64454;51.984;9.838;2023-10-31T09:21:17;98476.00;;;13.10
75822;BMP180;64454;51.984;9.838;2023-10-31T09:23:44;98484.00;;;13.70
75822;BMP180;64454;51.984;9.838;2023-10-31T09:26:10;98463.00;;;15.30
75822;BMP180;64454;51.984;9.838;2023-10-31T09:28:36;98487.00;;;16.80
75822;BMP180;64454;51.984;9.838;2023-10-31T09:31:03;98490.00;;;16.20
75822;BMP180;64454;51.984;9.838;2023-10-31T09:33:29;98503.00;;;15.50
75822;BMP180;64454;51.984;9.838;2023-10-31T09:35:56;98510.00;;;15.10
75822;BMP180;64454;51.984;9.838;2023-10-31T09:38:22;98514.00;;;14.80
75822;BMP180;64454;51.984;9.838;2023-10-31T09:40:48;98523.00;;;14.50
75822;BMP180;64454;51.984;9.838;2023-10-31T09:43:16;98519.00;;;14.20
75822;BMP180;64454;51.984;9.838;2023-10-31T09:45:42;98527.00;;;14.00
75822;BMP180;64454;51.984;9.838;2023-10-31T09:48:09;98526.00;;;13.90
75822;BMP180;64454;51.984;9.838;2023-10-31T09:50:36;98542.00;;;13.80
75822;BMP180;64454;51.984;9.838;2023-10-31T09:53:05;98545.00;;;13.80
75822;BMP180;64454;51.984;9.838;2023-10-31T09:55:32;98552.00;;;13.50
75822;BMP180;64454;51.984;9.838;2023-10-31T09:57:58;98547.00;;;13.50
75822;BMP180;64454;51.984;9.838;2023-10-31T10:00:25;98563.00;;;13.20
75822;BMP180;64454;51.984;9.838;2023-10-31T10:02:51;98575.00;;;13.00
75822;BMP180;64454;51.984;9.838;2023-10-31T10:05:19;98578.00;;;12.70
75822;BMP180;64454;51.984;9.838;2023-10-31T10:07:46;98582.00;;;12.70
75822;BMP180;64454;51.984;9.838;2023-10-31T10:10:13;98587.00;;;12.90
75822;BMP180;64454;51.984;9.838;2023-10-31T10:12:42;98599.00;;;13.00
75822;BMP180;64454;51.984;9.838;2023-10-31T10:15:09;98600.00;;;12.90
75822;BMP180;64454;51.984;9.838;2023-10-31T10:17:36;98600.00;;;12.90
75822;BMP180;64454;51.984;9.838;2023-10-31T10:20:07;98607.00;;;12.90
75822;BMP180;64454;51.984;9.838;2023-10-31T10:22:37;98615.00;;;13.10
75822;BMP180;64454;51.984;9.838;2023-10-31T10:25:06;98617.00;;;13.10
75822;BMP180;64454;51.984;9.838;2023-10-31T10:27:32;98616.00;;;12.90
75822;BMP180;64454;51.984;9.838;2023-10-31T10:29:58;98621.00;;;13.10
75822;BMP180;64454;51.984;9.838;2023-10-31T10:32:25;98621.00;;;13.10
75822;BMP180;64454;51.984;9.838;2023-10-31T10:34:51;98633.00;;;13.20
75822;BMP180;64454;51.984;9.838;2023-10-31T10:37:19;98633.00;;;12.90
75822;BMP180;64454;51.984;9.838;2023-10-31T10:39:48;98641.00;;;12.80
75822;BMP180;64454;51.984;9.838;2023-10-31T10:42:31;98631.00;;;12.80
75822;BMP180;64454;51.984;9.838;2023-10-31T10:45:03;98633.00;;;12.70
75822;BMP180;64454;51.984;9.838;2023-10-31T10:47:31;98638.00;;;12.80
75822;BMP180;64454;51.984;9.838;2023-10-31T10:50:00;98638.00;;;12.70
75822;BMP180;64454;51.984;9.838;2023-10-31T10:52:35;98635.00;;;12.80
75822;BMP180;64454;51.984;9.838;2023-10-31T10:55:12;98641.00;;;12.80
75822;BMP180;64454;51.984;9.838;2023-10-31T10:57:48;98627.00;;;12.90
75822;BMP180;64454;51.984;9.838;2023-10-31T11:00:17;98634.00;;;12.80
75822;BMP180;64454;51.984;9.838;2023-10-31T11:02:46;98643.00;;;13.00
75822;BMP180;64454;51.984;9.838;2023-10-31T11:05:14;98630.00;;;12.90
75822;BMP180;64454;51.984;9.838;2023-10-31T11:07:40;98634.00;;;12.80
75822;BMP180;64454;51.984;9.838;2023-10-31T11:10:09;98631.00;;;13.10
75822;BMP180;64454;51.984;9.838;2023-10-31T11:12:37;98626.00;;;13.30
75822;BMP180;64454;51.984;9.838;2023-10-31T11:15:07;98634.00;;;13.30
75822;BMP180;64454;51.984;9.838;2023-10-31T11:17:38;98630.00;;;13.20
75822;BMP180;64454;51.984;9.838;2023-10-31T11:20:10;98633.00;;;13.20
75822;BMP180;64454;51.984;9.838;2023-10-31T11:22:38;98629.00;;;13.30
75822;BMP180;64454;51.984;9.838;2023-10-31T11:25:07;98636.00;;;13.00
75822;BMP180;64454;51.984;9.838;2023-10-31T11:27:35;98635.00;;;13.20
75822;BMP180;64454;51.984;9.838;2023-10-31T11:30:05;98631.00;;;13.60
75822;BMP180;64454;51.984;9.838;2023-10-31T11:32:32;98626.00;;;13.10
75822;BMP180;64454;51.984;9.838;2023-10-31T11:35:00;98633.00;;;13.40
75822;BMP180;64454;51.984;9.838;2023-10-31T11:37:32;98631.00;;;13.20
75822;BMP180;64454;51.984;9.838;2023-10-31T11:40:20;98640.00;;;13.70
75822;BMP180;64454;51.984;9.838;2023-10-31T11:42:50;98641.00;;;13.80
75822;BMP180;64454;51.984;9.838;2023-10-31T11:45:27;98643.00;;;13.70
75822;BMP180;64454;51.984;9.838;2023-10-31T11:47:53;98639.00;;;13.90
75822;BMP180;64454;51.984;9.838;2023-10-31T11:50:20;98646.00;;;13.70
75822;BMP180;64454;51.984;9.838;2023-10-31T11:53:04;98650.00;;;13.50
75822;BMP180;64454;51.984;9.838;2023-10-31T12:03:38;98651.00;;;13.30
75822;BMP180;64454;51.984;9.838;2023-10-31T12:06:05;98656.00;;;13.40
75822;BMP180;64454;51.984;9.838;2023-10-31T12:08:33;98648.00;;;13.70
75822;BMP180;64454;51.984;9.838;2023-10-31T12:11:05;98653.00;;;13.90
75822;BMP180;64454;51.984;9.838;2023-10-31T12:13:32;98662.00;;;14.00
75822;BMP180;64454;51.984;9.838;2023-10-31T12:15:59;98654.00;;;14.10
75822;BMP180;64454;51.984;9.838;2023-10-31T12:18:27;98662.00;;;14.30
75822;BMP180;64454;51.984;9.838;2023-10-31T12:20:54;98667.00;;;14.20
75822;BMP180;64454;51.984;9.838;2023-10-31T12:23:20;98661.00;;;14.10
75822;BMP180;64454;51.984;9.838;2023-10-31T12:25:47;98665.00;;;13.90
75822;BMP180;64454;51.984;9.838;2023-10-31T12:28:17;98667.00;;;14.10
75822;BMP180;64454;51.984;9.838;2023-10-31T12:30:45;98667.00;;;13.80
75822;BMP180;64454;51.984;9.838;2023-10-31T12:33:12;98671.00;;;13.90
75822;BMP180;64454;51.984;9.838;2023-10-31T12:35:39;98676.00;;;13.90
75822;BMP180;64454;51.984;9.838;2023-10-31T12:38:10;98679.00;;;13.70
75822;BMP180;64454;51.984;9.838;2023-10-31T12:40:37;98681.00;;;13.70
75822;BMP180;64454;51.984;9.838;2023-10-31T12:43:03;98683.00;;;13.60
75822;BMP180;64454;51.984;9.838;2023-10-31T12:45:30;98686.00;;;13.60
75822;BMP180;64454;51.984;9.838;2023-10-31T12:48:04;98688.00;;;13.50
75822;BMP180;64454;51.984;9.838;2023-10-31T12:50:31;98692.00;;;13.50
75822;BMP180;64454;51.984;9.838;2023-10-31T12:52:57;98708.00;;;13.40
75822;BMP180;64454;51.984;9.838;2023-10-31T12:55:27;98704.00;;;13.40
75822;BMP180;64454;51.984;9.838;2023-10-31T12:57:55;98695.00;;;14.20
75822;BMP180;64454;51.984;9.838;2023-10-31T13:00:30;98667.00;;;15.40
75822;BMP180;64454;51.984;9.838;2023-10-31T13:03:00;98693.00;;;17.20
75822;BMP180;64454;51.984;9.838;2023-10-31T13:05:28;98716.00;;;16.90
75822;BMP180;64454;51.984;9.838;2023-10-31T13:07:56;98686.00;;;16.20
75822;BMP180;64454;51.984;9.838;2023-10-31T13:10:24;98716.00;;;16.30
75822;BMP180;64454;51.984;9.838;2023-10-31T13:12:52;98716.00;;;15.80
75822;BMP180;64454;51.984;9.838;2023-10-31T13:15:20;98708.00;;;15.70
75822;BMP180;64454;51.984;9.838;2023-10-31T13:17:48;98684.00;;;15.80
75822;BMP180;64454;51.984;9.838;2023-10-31T13:20:17;98708.00;;;16.80
75822;BMP180;64454;51.984;9.838;2023-10-31T13:22:44;98724.00;;;16.40
75822;BMP180;64454;51.984;9.838;2023-10-31T13:25:12;98731.00;;;15.80
75822;BMP180;64454;51.984;9.838;2023-10-31T13:27:41;98730.00;;;16.10
75822;BMP180;64454;51.984;9.838;2023-10-31T13:30:09;98707.00;;;15.90
75822;BMP180;64454;51.984;9.838;2023-10-31T13:32:36;98713.00;;;16.20
75822;BMP180;64454;51.984;9.838;2023-10-31T13:35:03;98712.00;;;17.00
75822;BMP180;64454;51.984;9.838;2023-10-31T13:37:30;98740.00;;;17.20
75822;BMP180;64454;51.984;9.838;2023-10-31T13:39:56;98742.00;;;16.80
75822;BMP180;64454;51.984;9.838;2023-10-31T13:42:22;98753.00;;;16.20
75822;BMP180;64454;51.984;9.838;2023-10-31T13:44:49;98727.00;;;16.30
75822;BMP180;64454;51.984;9.838;2023-10-31T13:47:15;98731.00;;;16.80
75822;BMP180;64454;51.984;9.838;2023-10-31T13:49:41;98728.00;;;17.50
75822;BMP180;64454;51.984;9.838;2023-10-31T13:52:08;98736.00;;;18.20
75822;BMP180;64454;51.984;9.838;2023-10-31T13:54:34;98762.00;;;17.30
75822;BMP180;64454;51.984;9.838;2023-10-31T13:57:00;98755.00;;;17.20
75822;BMP180;64454;51.984;9.838;2023-10-31T13:59:26;98754.00;;;16.50
75822;BMP180;64454;51.984;9.838;2023-10-31T14:01:53;98753.00;;;16.00
75822;BMP180;64454;51.984;9.838;2023-10-31T14:04:20;98762.00;;;16.00
75822;BMP180;64454;51.984;9.838;2023-10-31T14:06:46;98768.00;;;15.50
75822;BMP180;64454;51.984;9.838;2023-10-31T14:09:13;98773.00;;;15.40
75822;BMP180;64454;51.984;9.838;2023-10-31T14:11:41;98774.00;;;15.20
75822;BMP180;64454;51.984;9.838;2023-10-31T14:14:08;98772.00;;;15.20
75822;BMP180;64454;51.984;9.838;2023-10-31T14:16:36;98779.00;;;15.00